createdAt,value
2023-02-06T00:00:52.835Z,100.00
2023-02-06T00:03:20.266Z,100.00
2023-02-06T00:06:01.105Z,100.00
2023-02-06T00:08:28.516Z,100.00
2023-02-06T00:10:55.350Z,100.00
2023-02-06T00:13:22.845Z,100.00
2023-02-06T00:15:49.806Z,100.00
2023-02-06T00:18:16.606Z,100.00
2023-02-06T00:20:43.306Z,100.00
2023-02-06T00:23:10.069Z,100.00
2023-02-06T00:25:38.534Z,100.00
2023-02-06T00:28:05.369Z,100.00
2023-02-06T00:30:32.240Z,100.00
2023-02-06T00:32:58.964Z,100.00
2023-02-06T00:35:27.864Z,100.00
2023-02-06T00:37:54.984Z,100.00
2023-02-06T00:40:22.245Z,100.00
2023-02-06T00:42:49.015Z,100.00
2023-02-06T00:45:15.730Z,100.00
2023-02-06T00:47:42.394Z,100.00
2023-02-06T00:50:09.535Z,100.00
2023-02-06T00:52:36.408Z,100.00
2023-02-06T00:55:03.225Z,100.00
2023-02-06T00:57:29.899Z,100.00
2023-02-06T00:59:56.693Z,100.00
2023-02-06T01:02:23.516Z,100.00
2023-02-06T01:04:50.304Z,100.00
2023-02-06T01:07:17.188Z,100.00
2023-02-06T01:09:43.954Z,100.00
2023-02-06T01:12:10.589Z,100.00
2023-02-06T01:14:37.397Z,100.00
2023-02-06T01:17:05.928Z,100.00
2023-02-06T01:19:32.879Z,100.00
2023-02-06T01:21:59.718Z,100.00
2023-02-06T01:24:26.437Z,100.00
2023-02-06T01:26:53.102Z,100.00
2023-02-06T01:29:19.836Z,100.00
2023-02-06T01:31:46.897Z,100.00
2023-02-06T01:34:13.958Z,100.00
2023-02-06T01:36:40.763Z,100.00
2023-02-06T01:39:07.845Z,100.00
2023-02-06T01:41:34.874Z,100.00
2023-02-06T01:44:10.841Z,100.00
2023-02-06T01:46:39.984Z,100.00
2023-02-06T01:49:09.887Z,100.00
2023-02-06T01:51:36.632Z,100.00
2023-02-06T01:54:06.909Z,100.00
2023-02-06T01:56:40.063Z,100.00
2023-02-06T01:59:06.872Z,100.00
2023-02-06T02:01:33.801Z,100.00
2023-02-06T02:04:10.850Z,100.00
2023-02-06T02:06:37.798Z,100.00
2023-02-06T02:09:06.757Z,100.00
2023-02-06T02:11:37.408Z,100.00
2023-02-06T02:14:07.909Z,100.00
2023-02-06T02:16:53.881Z,100.00
2023-02-06T02:19:57.420Z,100.00
2023-02-06T02:22:43.002Z,100.00
2023-02-06T02:25:31.546Z,100.00
2023-02-06T02:28:04.421Z,100.00
2023-02-06T02:30:59.244Z,100.00
2023-02-06T02:33:53.977Z,100.00
2023-02-06T02:36:39.409Z,100.00
2023-02-06T02:39:23.024Z,100.00
2023-02-06T02:42:18.921Z,100.00
2023-02-06T02:45:19.470Z,100.00
2023-02-06T02:47:58.243Z,100.00
2023-02-06T02:50:26.249Z,100.00
2023-02-06T02:52:53.203Z,100.00
2023-02-06T02:55:23.044Z,100.00
2023-02-06T02:57:53.742Z,100.00
2023-02-06T03:00:23.403Z,100.00
2023-02-06T03:02:52.390Z,100.00
2023-02-06T03:05:24.341Z,100.00
2023-02-06T03:08:28.688Z,100.00
2023-02-06T03:11:13.845Z,100.00
2023-02-06T03:13:57.676Z,100.00
2023-02-06T03:16:39.286Z,100.00
2023-02-06T03:19:17.335Z,100.00
2023-02-06T03:21:45.757Z,100.00
2023-02-06T03:24:20.795Z,100.00
2023-02-06T03:26:50.476Z,100.00
2023-02-06T03:29:18.839Z,100.00
2023-02-06T03:32:13.444Z,100.00
2023-02-06T03:34:48.031Z,100.00
2023-02-06T03:37:14.941Z,100.00
2023-02-06T03:39:41.995Z,100.00
2023-02-06T03:42:12.492Z,100.00
2023-02-06T03:44:46.081Z,100.00
2023-02-06T03:47:15.912Z,100.00
2023-02-06T03:49:45.553Z,100.00
2023-02-06T03:52:16.880Z,100.00
2023-02-06T03:54:49.088Z,100.00
2023-02-06T03:57:19.345Z,100.00
2023-02-06T03:59:46.840Z,100.00
2023-02-06T04:02:15.616Z,100.00
2023-02-06T04:04:44.686Z,100.00
2023-02-06T04:07:25.304Z,100.00
2023-02-06T04:09:52.534Z,100.00
2023-02-06T04:12:20.528Z,100.00
2023-02-06T04:14:47.309Z,100.00
2023-02-06T04:17:18.761Z,100.00
2023-02-06T04:19:50.786Z,100.00
2023-02-06T04:22:17.619Z,100.00
2023-02-06T04:24:44.313Z,100.00
2023-02-06T04:27:13.291Z,100.00
2023-02-06T04:29:40.285Z,100.00
2023-02-06T04:32:07.589Z,100.00
2023-02-06T04:34:35.745Z,100.00
2023-02-06T04:37:03.942Z,100.00
2023-02-06T04:39:32.459Z,100.00
2023-02-06T04:41:59.643Z,100.00
2023-02-06T04:44:26.392Z,100.00
2023-02-06T04:46:53.125Z,100.00
2023-02-06T04:49:19.875Z,100.00
2023-02-06T04:51:46.531Z,100.00
2023-02-06T04:54:14.760Z,100.00
2023-02-06T04:56:41.458Z,100.00
2023-02-06T04:59:08.158Z,100.00
2023-02-06T05:01:34.940Z,100.00
2023-02-06T05:04:01.945Z,100.00
2023-02-06T05:06:29.684Z,100.00
2023-02-06T05:08:57.498Z,100.00
2023-02-06T05:11:24.156Z,100.00
2023-02-06T05:13:50.828Z,100.00
2023-02-06T05:16:18.790Z,100.00
2023-02-06T05:18:45.725Z,100.00
2023-02-06T05:21:13.700Z,100.00
2023-02-06T05:23:40.531Z,100.00
2023-02-06T05:26:07.242Z,100.00
2023-02-06T05:28:34.036Z,100.00
2023-02-06T05:31:02.202Z,100.00
2023-02-06T05:33:29.145Z,100.00
2023-02-06T05:36:02.801Z,100.00
2023-02-06T05:38:29.522Z,100.00
2023-02-06T05:40:56.366Z,100.00
2023-02-06T05:43:24.914Z,100.00
2023-02-06T05:45:51.875Z,100.00
2023-02-06T05:48:18.642Z,100.00
2023-02-06T05:50:48.966Z,100.00
2023-02-06T05:53:17.108Z,100.00
2023-02-06T05:55:43.873Z,100.00
2023-02-06T05:58:11.274Z,100.00
2023-02-06T06:00:37.978Z,100.00
2023-02-06T06:03:05.242Z,100.00
2023-02-06T06:05:32.026Z,100.00
2023-02-06T06:07:58.864Z,100.00
2023-02-06T06:10:25.979Z,100.00
2023-02-06T06:12:52.784Z,100.00
2023-02-06T06:15:19.594Z,100.00
2023-02-06T06:17:46.331Z,100.00
2023-02-06T06:20:13.100Z,100.00
2023-02-06T06:22:39.873Z,100.00
2023-02-06T06:25:06.882Z,100.00
2023-02-06T06:27:34.055Z,100.00
2023-02-06T06:30:00.816Z,100.00
2023-02-06T06:32:27.534Z,100.00
2023-02-06T06:34:54.236Z,100.00
2023-02-06T06:37:21.313Z,100.00
2023-02-06T06:39:47.988Z,100.00
2023-02-06T06:42:14.676Z,100.00
2023-02-06T06:44:41.336Z,100.00
2023-02-06T06:47:08.042Z,100.00
2023-02-06T06:49:34.727Z,100.00
2023-02-06T06:52:01.480Z,100.00
2023-02-06T06:54:28.160Z,100.00
2023-02-06T06:56:54.855Z,100.00
2023-02-06T06:59:21.946Z,100.00
2023-02-06T07:01:52.363Z,100.00
2023-02-06T07:04:20.887Z,100.00
2023-02-06T07:06:47.704Z,100.00
2023-02-06T07:09:14.645Z,100.00
2023-02-06T07:11:41.415Z,100.00
2023-02-06T07:14:09.565Z,100.00
2023-02-06T07:16:36.332Z,100.00
2023-02-06T07:19:03.179Z,100.00
2023-02-06T07:21:30.180Z,100.00
2023-02-06T07:23:56.935Z,100.00
2023-02-06T07:26:23.690Z,100.00
2023-02-06T07:28:50.416Z,100.00
2023-02-06T07:31:17.208Z,100.00
2023-02-06T07:33:43.842Z,100.00
2023-02-06T07:36:15.523Z,100.00
2023-02-06T07:38:42.469Z,100.00
2023-02-06T07:41:10.761Z,100.00
2023-02-06T07:43:38.816Z,100.00
2023-02-06T07:46:05.960Z,100.00
2023-02-06T07:48:32.828Z,100.00
2023-02-06T07:51:09.409Z,100.00
2023-02-06T07:53:37.108Z,100.00
2023-02-06T07:56:15.860Z,100.00
2023-02-06T07:58:43.331Z,100.00
2023-02-06T08:01:10.287Z,100.00
2023-02-06T08:03:37.194Z,100.00
2023-02-06T08:06:15.896Z,100.00
2023-02-06T08:08:43.854Z,100.00
2023-02-06T08:11:16.720Z,100.00
2023-02-06T08:13:43.860Z,100.00
2023-02-06T08:16:14.017Z,100.00
2023-02-06T08:18:41.356Z,100.00
2023-02-06T08:21:14.061Z,100.00
2023-02-06T08:23:41.371Z,100.00
2023-02-06T08:26:15.642Z,100.00
2023-02-06T08:28:43.826Z,100.00
2023-02-06T08:31:17.715Z,100.00
2023-02-06T08:33:45.042Z,100.00
2023-02-06T08:36:13.121Z,100.00
2023-02-06T08:38:40.646Z,100.00
2023-02-06T08:41:18.088Z,100.00
2023-02-06T08:43:49.895Z,100.00
2023-02-06T08:46:18.827Z,100.00
2023-02-06T08:48:46.379Z,100.00
2023-02-06T08:51:14.229Z,100.00
2023-02-06T08:53:42.686Z,100.00
2023-02-06T08:56:13.606Z,100.00
2023-02-06T08:58:40.509Z,100.00
2023-02-06T09:01:16.807Z,100.00
2023-02-06T09:03:44.085Z,100.00
2023-02-06T09:06:11.256Z,100.00
2023-02-06T09:08:38.937Z,100.00
2023-02-06T09:11:12.378Z,100.00
2023-02-06T09:13:39.432Z,100.00
2023-02-06T09:16:09.459Z,100.00
2023-02-06T09:18:36.922Z,100.00
2023-02-06T09:21:12.879Z,100.00
2023-02-06T09:23:43.559Z,100.00
2023-02-06T09:26:15.338Z,100.00
2023-02-06T09:28:42.653Z,100.00
2023-02-06T09:31:10.451Z,100.00
2023-02-06T09:33:38.841Z,100.00
2023-02-06T09:36:12.422Z,100.00
2023-02-06T09:38:45.025Z,100.00
2023-02-06T09:41:18.827Z,100.00
2023-02-06T09:43:51.690Z,100.00
2023-02-06T09:46:23.336Z,100.00
2023-02-06T09:48:50.907Z,100.00
2023-02-06T09:51:30.100Z,100.00
2023-02-06T09:54:11.006Z,100.00
2023-02-06T09:57:08.749Z,98.26
2023-02-06T09:59:43.151Z,98.11
2023-02-06T10:02:41.084Z,97.41
2023-02-06T10:05:29.006Z,98.91
2023-02-06T10:08:25.824Z,94.39
2023-02-06T10:10:56.423Z,93.03
2023-02-06T10:13:32.928Z,90.53
2023-02-06T10:16:06.197Z,91.07
2023-02-06T10:18:41.753Z,92.62
2023-02-06T10:21:37.112Z,88.21
2023-02-06T10:24:29.777Z,85.65
2023-02-06T10:26:59.238Z,85.37
2023-02-06T10:29:32.626Z,84.80
2023-02-06T10:32:15.734Z,81.49
2023-02-06T10:34:51.786Z,79.62
2023-02-06T10:37:37.317Z,80.99
2023-02-06T10:40:26.372Z,81.42
2023-02-06T10:43:08.395Z,82.64
2023-02-06T10:46:05.615Z,83.36
2023-02-06T10:49:14.355Z,82.28
2023-02-06T10:51:47.376Z,83.85
2023-02-06T10:54:30.460Z,83.91
2023-02-06T10:56:58.782Z,84.91
2023-02-06T10:59:33.968Z,84.87
2023-02-06T11:02:18.445Z,81.60
2023-02-06T11:04:50.186Z,80.41
2023-02-06T11:07:28.058Z,79.64
2023-02-06T11:09:55.239Z,78.57
2023-02-06T11:12:32.285Z,79.64
2023-02-06T11:15:04.948Z,78.46
2023-02-06T11:17:31.786Z,78.42
2023-02-06T11:20:14.954Z,78.90
2023-02-06T11:22:52.257Z,79.31
2023-02-06T11:25:29.827Z,77.39
2023-02-06T11:27:58.247Z,78.57
2023-02-06T11:30:32.068Z,76.75
2023-02-06T11:33:05.187Z,76.20
2023-02-06T11:35:35.381Z,77.59
2023-02-06T11:38:15.259Z,77.95
2023-02-06T11:40:42.630Z,76.95
2023-02-06T11:43:17.024Z,77.51
2023-02-06T11:45:45.413Z,75.41
2023-02-06T11:48:53.851Z,74.86
2023-02-06T11:51:21.386Z,74.85
2023-02-06T11:53:57.668Z,75.30
2023-02-06T11:56:25.054Z,75.23
2023-02-06T11:59:06.845Z,77.69
2023-02-06T12:01:46.400Z,76.99
2023-02-06T12:04:24.005Z,77.70
2023-02-06T12:07:06.771Z,79.00
2023-02-06T12:09:33.528Z,79.79
2023-02-06T12:12:06.501Z,81.17
2023-02-06T12:14:45.897Z,82.29
2023-02-06T12:18:01.184Z,80.85
2023-02-06T12:20:32.224Z,81.33
2023-02-06T12:23:18.277Z,83.67
2023-02-06T12:25:49.590Z,84.15
2023-02-06T12:28:22.772Z,84.49
2023-02-06T12:30:57.111Z,82.96
2023-02-06T12:33:35.322Z,83.19
2023-02-06T12:36:25.533Z,81.81
2023-02-06T12:39:05.765Z,81.99
2023-02-06T12:42:06.650Z,81.97
2023-02-06T12:44:42.081Z,82.32
2023-02-06T12:47:36.197Z,82.98
2023-02-06T12:50:25.907Z,81.90
2023-02-06T12:53:05.313Z,82.62
2023-02-06T12:55:37.507Z,81.19
2023-02-06T12:58:05.100Z,81.89
2023-02-06T13:00:55.352Z,82.80
2023-02-06T13:03:40.554Z,82.30
2023-02-06T13:06:20.136Z,83.36
2023-02-06T13:09:00.010Z,82.40
2023-02-06T13:11:36.128Z,81.48
2023-02-06T13:14:07.883Z,81.53
2023-02-06T13:16:38.982Z,82.77
2023-02-06T13:19:05.842Z,82.76
2023-02-06T13:21:33.896Z,83.12
2023-02-06T13:24:03.711Z,82.53
2023-02-06T13:26:51.472Z,83.67
2023-02-06T13:29:22.679Z,83.03
2023-02-06T13:31:49.502Z,83.29
2023-02-06T13:34:18.154Z,83.71
2023-02-06T13:36:50.864Z,84.08
2023-02-06T13:39:32.730Z,83.55
2023-02-06T13:42:03.746Z,82.62
2023-02-06T13:44:33.754Z,81.88
2023-02-06T13:47:42.715Z,82.22
2023-02-06T13:50:26.996Z,82.22
2023-02-06T13:53:18.962Z,81.78
2023-02-06T13:55:59.068Z,81.42
2023-02-06T13:58:50.636Z,81.31
2023-02-06T14:01:26.002Z,79.71
2023-02-06T14:03:54.117Z,81.01
2023-02-06T14:06:45.756Z,81.57
2023-02-06T14:09:43.846Z,81.84
2023-02-06T14:12:35.443Z,81.64
2023-02-06T14:15:02.090Z,83.06
2023-02-06T14:17:38.126Z,82.83
2023-02-06T14:20:20.984Z,81.58
2023-02-06T14:23:11.518Z,80.90
2023-02-06T14:25:52.711Z,81.25
2023-02-06T14:28:42.514Z,81.31
2023-02-06T14:31:29.465Z,81.04
2023-02-06T14:34:21.417Z,81.07
2023-02-06T14:37:20.641Z,80.17
2023-02-06T14:39:53.666Z,79.28
2023-02-06T14:42:24.356Z,78.67
2023-02-06T14:44:59.189Z,77.76
2023-02-06T14:47:42.322Z,76.99
2023-02-06T14:50:24.099Z,75.35
2023-02-06T14:52:58.795Z,75.86
2023-02-06T14:55:35.392Z,76.44
2023-02-06T14:58:04.064Z,73.61
2023-02-06T15:00:32.042Z,73.32
2023-02-06T15:03:28.406Z,74.10
2023-02-06T15:06:08.155Z,73.63
2023-02-06T15:08:35.326Z,74.70
2023-02-06T15:11:05.730Z,74.30
2023-02-06T15:13:35.340Z,74.35
2023-02-06T15:16:08.077Z,74.73
2023-02-06T15:18:35.993Z,75.61
2023-02-06T15:21:18.526Z,76.15
2023-02-06T15:24:20.628Z,75.90
2023-02-06T15:27:19.039Z,76.19
2023-02-06T15:29:50.668Z,76.61
2023-02-06T15:32:27.897Z,76.51
2023-02-06T15:34:54.976Z,76.33
2023-02-06T15:37:34.017Z,77.61
2023-02-06T15:40:20.796Z,77.54
2023-02-06T15:42:49.176Z,77.10
2023-02-06T15:45:26.038Z,76.61
2023-02-06T15:47:54.663Z,77.13
2023-02-06T15:50:27.873Z,77.19
2023-02-06T15:52:55.629Z,77.10
2023-02-06T15:55:35.656Z,76.99
2023-02-06T15:58:05.169Z,77.36
2023-02-06T16:00:36.086Z,77.85
2023-02-06T16:03:08.887Z,78.19
2023-02-06T16:05:40.671Z,78.39
2023-02-06T16:08:16.332Z,78.82
2023-02-06T16:10:52.392Z,79.08
2023-02-06T16:13:23.081Z,79.99
2023-02-06T16:16:04.492Z,80.00
2023-02-06T16:18:34.142Z,79.84
2023-02-06T16:21:16.128Z,80.02
2023-02-06T16:23:48.720Z,80.28
2023-02-06T16:26:17.591Z,80.72
2023-02-06T16:28:56.592Z,81.51
2023-02-06T16:31:26.551Z,81.31
2023-02-06T16:33:55.560Z,81.72
2023-02-06T16:36:24.005Z,81.28
2023-02-06T16:39:03.290Z,81.83
2023-02-06T16:41:34.120Z,83.24
2023-02-06T16:44:03.097Z,83.77
2023-02-06T16:46:30.826Z,83.36
2023-02-06T16:48:59.450Z,83.67
2023-02-06T16:51:29.237Z,84.65
2023-02-06T16:53:57.262Z,85.19
2023-02-06T16:56:24.523Z,84.66
2023-02-06T16:58:51.508Z,84.82
2023-02-06T17:01:24.703Z,85.68
2023-02-06T17:03:52.732Z,86.57
2023-02-06T17:06:23.561Z,86.94
2023-02-06T17:08:51.786Z,89.44
2023-02-06T17:11:18.594Z,91.07
2023-02-06T17:13:45.403Z,91.15
2023-02-06T17:16:17.288Z,93.31
2023-02-06T17:18:44.402Z,95.25
2023-02-06T17:21:14.090Z,97.34
2023-02-06T17:23:41.361Z,98.26
2023-02-06T17:26:13.553Z,98.77
2023-02-06T17:28:40.950Z,98.08
2023-02-06T17:31:08.849Z,97.66
2023-02-06T17:33:35.897Z,98.36
2023-02-06T17:36:06.330Z,99.01
2023-02-06T17:38:34.341Z,98.36
2023-02-06T17:41:01.242Z,98.82
2023-02-06T17:43:29.541Z,99.82
2023-02-06T17:45:56.483Z,99.93
2023-02-06T17:48:23.787Z,100.00
2023-02-06T17:50:50.596Z,100.00
2023-02-06T17:53:18.309Z,100.00
2023-02-06T17:55:45.261Z,100.00
2023-02-06T17:58:12.120Z,100.00
2023-02-06T18:00:39.351Z,100.00
2023-02-06T18:03:06.247Z,100.00
2023-02-06T18:05:33.205Z,100.00
2023-02-06T18:07:59.998Z,100.00
2023-02-06T18:10:26.848Z,100.00
2023-02-06T18:12:53.809Z,100.00
2023-02-06T18:15:20.832Z,100.00
2023-02-06T18:17:47.589Z,100.00
2023-02-06T18:20:14.967Z,100.00
2023-02-06T18:22:42.032Z,100.00
2023-02-06T18:25:11.617Z,100.00
2023-02-06T18:27:39.880Z,100.00
2023-02-06T18:30:07.469Z,100.00
2023-02-06T18:32:34.539Z,100.00
2023-02-06T18:35:01.286Z,100.00
2023-02-06T18:37:28.314Z,100.00
2023-02-06T18:39:55.247Z,100.00
2023-02-06T18:42:45.046Z,100.00
2023-02-06T18:45:12.052Z,100.00
2023-02-06T18:47:39.960Z,100.00
2023-02-06T18:50:06.811Z,100.00
2023-02-06T18:52:34.625Z,100.00
2023-02-06T18:55:02.653Z,100.00
2023-02-06T18:57:29.537Z,100.00
2023-02-06T18:59:56.535Z,100.00
2023-02-06T19:02:23.302Z,100.00
2023-02-06T19:04:50.359Z,100.00
2023-02-06T19:07:17.285Z,100.00
2023-02-06T19:09:44.000Z,100.00
2023-02-06T19:12:10.718Z,100.00
2023-02-06T19:14:37.499Z,100.00
2023-02-06T19:17:04.229Z,100.00
2023-02-06T19:19:32.152Z,100.00
2023-02-06T19:21:59.082Z,100.00
2023-02-06T19:24:27.681Z,100.00
2023-02-06T19:26:54.403Z,100.00
2023-02-06T19:29:34.660Z,100.00
2023-02-06T19:32:04.236Z,100.00
2023-02-06T19:34:33.470Z,100.00
2023-02-06T19:37:02.677Z,100.00
2023-02-06T19:39:33.827Z,100.00
2023-02-06T19:42:02.191Z,100.00
2023-02-06T19:44:29.086Z,100.00
2023-02-06T19:46:56.747Z,100.00
2023-02-06T19:49:24.197Z,100.00
2023-02-06T19:51:51.471Z,100.00
2023-02-06T19:54:18.606Z,100.00
2023-02-06T19:56:48.610Z,100.00
2023-02-06T19:59:29.400Z,100.00
2023-02-06T20:02:01.709Z,100.00
2023-02-06T20:04:33.005Z,100.00
2023-02-06T20:06:59.967Z,99.04
2023-02-06T20:09:28.282Z,100.00
2023-02-06T20:11:56.054Z,100.00
2023-02-06T20:14:23.923Z,100.00
2023-02-06T20:16:50.814Z,100.00
2023-02-06T20:19:28.252Z,100.00
2023-02-06T20:21:57.798Z,100.00
2023-02-06T20:24:28.029Z,100.00
2023-02-06T20:27:00.729Z,100.00
2023-02-06T20:29:30.291Z,100.00
2023-02-06T20:31:58.042Z,100.00
2023-02-06T20:34:26.898Z,100.00
2023-02-06T20:36:54.760Z,100.00
2023-02-06T20:39:21.728Z,100.00
2023-02-06T20:41:50.241Z,100.00
2023-02-06T20:44:19.915Z,100.00
2023-02-06T20:46:47.550Z,100.00
2023-02-06T20:49:20.169Z,100.00
2023-02-06T20:51:51.260Z,100.00
2023-02-06T20:54:19.785Z,100.00
2023-02-06T20:56:47.150Z,100.00
2023-02-06T20:59:16.360Z,100.00
2023-02-06T21:01:43.469Z,100.00
2023-02-06T21:04:12.131Z,100.00
2023-02-06T21:06:39.388Z,100.00
2023-02-06T21:09:07.600Z,100.00
2023-02-06T21:11:39.628Z,100.00
2023-02-06T21:14:07.035Z,100.00
2023-02-06T21:16:35.043Z,100.00
2023-02-06T21:19:02.386Z,100.00
2023-02-06T21:21:29.512Z,100.00
2023-02-06T21:23:56.224Z,100.00
2023-02-06T21:26:23.981Z,100.00
2023-02-06T21:28:51.755Z,100.00
2023-02-06T21:31:24.815Z,100.00
2023-02-06T21:33:52.326Z,100.00
2023-02-06T21:36:20.988Z,100.00
2023-02-06T21:38:47.764Z,100.00
2023-02-06T21:41:17.270Z,100.00
2023-02-06T21:43:45.060Z,100.00
2023-02-06T21:46:13.085Z,100.00
2023-02-06T21:48:41.345Z,100.00
2023-02-06T21:51:16.367Z,100.00
2023-02-06T21:53:44.330Z,100.00
2023-02-06T21:56:16.612Z,100.00
2023-02-06T21:58:43.861Z,100.00
2023-02-06T22:01:19.704Z,100.00
2023-02-06T22:03:47.293Z,100.00
2023-02-06T22:06:15.270Z,100.00
2023-02-06T22:08:45.798Z,100.00
2023-02-06T22:11:13.670Z,100.00
2023-02-06T22:13:40.852Z,100.00
2023-02-06T22:16:08.652Z,100.00
2023-02-06T22:18:35.961Z,100.00
2023-02-06T22:21:05.194Z,100.00
2023-02-06T22:23:31.858Z,100.00
2023-02-06T22:25:58.674Z,100.00
2023-02-06T22:28:25.459Z,100.00
2023-02-06T22:30:52.319Z,100.00
2023-02-06T22:33:19.084Z,100.00
2023-02-06T22:35:45.845Z,100.00
2023-02-06T22:38:12.530Z,100.00
2023-02-06T22:40:39.237Z,100.00
2023-02-06T22:43:05.951Z,100.00
2023-02-06T22:45:35.228Z,100.00
2023-02-06T22:48:02.111Z,100.00
2023-02-06T22:50:28.873Z,100.00
2023-02-06T22:53:14.164Z,100.00
2023-02-06T22:55:59.597Z,100.00
2023-02-06T22:58:26.340Z,100.00
2023-02-06T23:01:01.214Z,100.00
2023-02-06T23:03:27.943Z,100.00
2023-02-06T23:05:55.592Z,100.00
2023-02-06T23:08:22.318Z,100.00
2023-02-06T23:10:49.317Z,100.00
2023-02-06T23:13:16.019Z,100.00
2023-02-06T23:15:42.980Z,100.00
2023-02-06T23:18:09.942Z,100.00
2023-02-06T23:20:37.501Z,100.00
2023-02-06T23:23:04.800Z,100.00
2023-02-06T23:25:31.932Z,100.00
2023-02-06T23:27:58.659Z,100.00
2023-02-06T23:30:25.693Z,100.00
2023-02-06T23:32:52.424Z,100.00
2023-02-06T23:35:19.215Z,100.00
2023-02-06T23:37:45.964Z,100.00
2023-02-06T23:40:12.721Z,100.00
2023-02-06T23:42:39.520Z,100.00
2023-02-06T23:45:06.745Z,100.00
2023-02-06T23:47:35.097Z,100.00
2023-02-06T23:50:01.823Z,100.00
2023-02-06T23:52:28.627Z,100.00
2023-02-06T23:54:55.642Z,100.00
2023-02-06T23:57:22.958Z,100.00
2023-02-06T23:59:49.772Z,100.00
